createdAt,value
2023-03-08T00:01:15.266Z,73.94
2023-03-08T00:03:42.149Z,73.88
2023-03-08T00:06:11.464Z,74.07
2023-03-08T00:08:38.259Z,74.34
2023-03-08T00:11:06.332Z,74.38
2023-03-08T00:13:32.962Z,74.38
2023-03-08T00:16:01.466Z,74.42
2023-03-08T00:18:27.914Z,74.54
2023-03-08T00:21:01.904Z,74.74
2023-03-08T00:23:28.298Z,74.60
2023-03-08T00:25:55.160Z,74.55
2023-03-08T00:28:21.675Z,74.69
2023-03-08T00:31:09.134Z,74.94
2023-03-08T00:33:36.327Z,74.68
2023-03-08T00:36:06.790Z,74.75
2023-03-08T00:38:35.835Z,74.96
2023-03-08T00:41:02.886Z,74.92
2023-03-08T00:43:31.922Z,74.97
2023-03-08T00:45:58.685Z,75.09
2023-03-08T00:48:25.104Z,75.44
2023-03-08T00:50:51.981Z,74.92
2023-03-08T00:53:19.103Z,75.10
2023-03-08T00:55:51.578Z,74.66
2023-03-08T00:58:18.767Z,75.03
2023-03-08T01:00:46.078Z,75.22
2023-03-08T01:03:13.007Z,75.57
2023-03-08T01:05:44.697Z,75.05
2023-03-08T01:08:13.779Z,75.31
2023-03-08T01:10:40.964Z,75.14
2023-03-08T01:13:08.378Z,75.09
2023-03-08T01:15:36.901Z,75.23
2023-03-08T01:18:05.563Z,75.06
2023-03-08T01:20:32.899Z,75.48
2023-03-08T01:22:59.442Z,75.02
2023-03-08T01:25:26.113Z,75.04
2023-03-08T01:27:52.533Z,75.49
2023-03-08T01:30:19.236Z,75.19
2023-03-08T01:32:45.714Z,74.79
2023-03-08T01:35:12.241Z,75.04
2023-03-08T01:37:38.788Z,74.71
2023-03-08T01:40:06.284Z,75.17
2023-03-08T01:42:33.287Z,75.48
2023-03-08T01:45:03.392Z,75.43
2023-03-08T01:47:33.267Z,75.28
2023-03-08T01:50:11.954Z,74.97
2023-03-08T01:52:43.246Z,75.47
2023-03-08T01:55:12.789Z,75.38
2023-03-08T01:57:47.469Z,75.18
2023-03-08T02:00:22.903Z,75.29
2023-03-08T02:02:59.568Z,74.95
2023-03-08T02:05:27.158Z,75.14
2023-03-08T02:07:58.833Z,75.13
2023-03-08T02:10:28.940Z,75.18
2023-03-08T02:12:55.654Z,75.14
2023-03-08T02:15:22.719Z,75.19
2023-03-08T02:17:52.974Z,74.82
2023-03-08T02:20:27.578Z,75.28
2023-03-08T02:22:54.260Z,75.35
2023-03-08T02:25:25.147Z,75.46
2023-03-08T02:27:53.484Z,75.52
2023-03-08T02:30:25.592Z,75.22
2023-03-08T02:32:53.326Z,75.80
2023-03-08T02:35:19.708Z,75.58
2023-03-08T02:37:46.121Z,75.52
2023-03-08T02:40:13.442Z,75.90
2023-03-08T02:42:40.273Z,75.69
2023-03-08T02:45:07.761Z,75.61
2023-03-08T02:47:34.231Z,75.62
2023-03-08T02:50:00.635Z,75.71
2023-03-08T02:52:27.132Z,75.93
2023-03-08T02:54:53.927Z,75.75
2023-03-08T02:57:22.182Z,76.05
2023-03-08T02:59:49.980Z,75.46
2023-03-08T03:02:16.998Z,76.08
2023-03-08T03:04:43.524Z,76.13
2023-03-08T03:07:09.887Z,76.12
2023-03-08T03:09:37.278Z,75.83
2023-03-08T03:12:04.059Z,75.76
2023-03-08T03:14:34.667Z,75.88
2023-03-08T03:17:02.317Z,76.07
2023-03-08T03:19:28.790Z,75.56
2023-03-08T03:21:55.231Z,75.91
2023-03-08T03:24:21.743Z,75.81
2023-03-08T03:26:54.778Z,75.69
2023-03-08T03:29:23.368Z,75.49
2023-03-08T03:31:55.809Z,76.19
2023-03-08T03:34:22.784Z,76.19
2023-03-08T03:36:50.059Z,76.33
2023-03-08T03:39:16.646Z,76.13
2023-03-08T03:41:44.613Z,76.01
2023-03-08T03:44:13.804Z,75.73
2023-03-08T03:46:42.971Z,75.92
2023-03-08T03:49:11.501Z,76.13
2023-03-08T03:51:41.339Z,76.09
2023-03-08T03:54:19.335Z,75.97
2023-03-08T03:56:47.320Z,75.86
2023-03-08T03:59:14.129Z,76.19
2023-03-08T04:01:40.762Z,75.77
2023-03-08T04:04:17.838Z,75.84
2023-03-08T04:06:46.446Z,75.96
2023-03-08T04:09:17.613Z,76.35
2023-03-08T04:11:48.482Z,76.33
2023-03-08T04:14:18.994Z,76.63
2023-03-08T04:16:45.560Z,76.05
2023-03-08T04:19:20.666Z,75.98
2023-03-08T04:21:51.360Z,76.39
2023-03-08T04:24:19.717Z,76.46
2023-03-08T04:26:50.032Z,75.97
2023-03-08T04:29:18.953Z,76.03
2023-03-08T04:31:45.926Z,76.10
2023-03-08T04:34:15.966Z,76.16
2023-03-08T04:36:44.203Z,75.84
2023-03-08T04:39:10.689Z,75.71
2023-03-08T04:41:37.267Z,76.11
2023-03-08T04:44:24.008Z,76.23
2023-03-08T04:46:52.458Z,75.75
2023-03-08T04:49:26.472Z,76.01
2023-03-08T04:51:58.661Z,76.03
2023-03-08T04:54:25.360Z,76.15
2023-03-08T04:56:58.726Z,75.88
2023-03-08T04:59:25.659Z,75.84
2023-03-08T05:01:55.046Z,75.76
2023-03-08T05:04:22.535Z,76.43
2023-03-08T05:06:49.109Z,76.68
2023-03-08T05:09:20.642Z,76.77
2023-03-08T05:11:49.895Z,76.50
2023-03-08T05:14:16.422Z,76.42
2023-03-08T05:16:42.936Z,77.04
2023-03-08T05:19:10.348Z,76.82
2023-03-08T05:21:44.461Z,75.95
2023-03-08T05:24:11.069Z,76.57
2023-03-08T05:26:40.161Z,76.50
2023-03-08T05:29:08.246Z,76.59
2023-03-08T05:31:37.599Z,76.67
2023-03-08T05:34:10.648Z,76.51
2023-03-08T05:36:38.942Z,76.40
2023-03-08T05:39:07.461Z,76.48
2023-03-08T05:41:43.616Z,76.44
2023-03-08T05:44:11.264Z,76.31
2023-03-08T05:46:39.438Z,76.39
2023-03-08T05:49:07.588Z,76.71
2023-03-08T05:51:35.872Z,76.91
2023-03-08T05:54:02.727Z,76.69
2023-03-08T05:56:31.446Z,76.37
2023-03-08T05:59:20.837Z,76.64
2023-03-08T06:01:47.694Z,76.49
2023-03-08T06:04:22.743Z,76.65
2023-03-08T06:06:50.828Z,77.65
2023-03-08T06:09:19.634Z,77.28
2023-03-08T06:11:47.066Z,77.43
2023-03-08T06:14:14.312Z,77.58
2023-03-08T06:16:41.359Z,77.35
2023-03-08T06:19:07.756Z,77.65
2023-03-08T06:21:35.738Z,77.76
2023-03-08T06:24:03.935Z,77.63
2023-03-08T06:26:30.831Z,77.56
2023-03-08T06:28:57.551Z,77.24
2023-03-08T06:31:27.971Z,77.03
2023-03-08T06:33:55.188Z,77.74
2023-03-08T06:36:24.727Z,76.72
2023-03-08T06:38:51.551Z,76.85
2023-03-08T06:41:20.343Z,76.70
2023-03-08T06:43:51.131Z,77.35
2023-03-08T06:46:19.092Z,77.24
2023-03-08T06:48:47.252Z,77.09
2023-03-08T06:51:14.920Z,76.79
2023-03-08T06:53:44.105Z,76.89
2023-03-08T06:56:14.464Z,76.75
2023-03-08T06:58:41.346Z,76.83
2023-03-08T07:01:09.595Z,76.84
2023-03-08T07:03:37.180Z,77.33
2023-03-08T07:06:07.180Z,77.15
2023-03-08T07:08:34.632Z,76.86
2023-03-08T07:11:01.483Z,77.24
2023-03-08T07:13:29.689Z,76.97
2023-03-08T07:15:56.914Z,76.90
2023-03-08T07:18:23.702Z,76.69
2023-03-08T07:20:56.808Z,76.64
2023-03-08T07:23:23.722Z,76.81
2023-03-08T07:25:50.206Z,76.38
2023-03-08T07:28:16.663Z,76.44
2023-03-08T07:30:50.894Z,76.56
2023-03-08T07:33:19.858Z,76.68
2023-03-08T07:35:47.037Z,76.20
2023-03-08T07:38:13.630Z,76.62
2023-03-08T07:40:40.115Z,76.12
2023-03-08T07:43:06.818Z,76.37
2023-03-08T07:45:45.445Z,76.69
2023-03-08T07:48:11.889Z,76.58
2023-03-08T07:50:38.309Z,76.66
2023-03-08T07:53:04.831Z,77.17
2023-03-08T07:55:31.253Z,77.61
2023-03-08T07:57:57.632Z,77.49
2023-03-08T08:00:24.267Z,78.31
2023-03-08T08:02:53.930Z,78.07
2023-03-08T08:05:22.025Z,77.60
2023-03-08T08:07:48.831Z,77.36
2023-03-08T08:10:15.430Z,77.55
2023-03-08T08:12:41.885Z,77.04
2023-03-08T08:15:08.495Z,77.36
2023-03-08T08:17:34.966Z,77.07
2023-03-08T08:20:01.406Z,78.44
2023-03-08T08:22:27.768Z,77.66
2023-03-08T08:24:54.168Z,78.04
2023-03-08T08:27:20.522Z,78.10
2023-03-08T08:29:49.423Z,77.97
2023-03-08T08:32:15.881Z,77.62
2023-03-08T08:34:42.398Z,77.63
2023-03-08T08:37:08.776Z,77.60
2023-03-08T08:39:35.312Z,77.54
2023-03-08T08:42:01.785Z,77.77
2023-03-08T08:44:28.284Z,77.16
2023-03-08T08:46:54.756Z,77.06
2023-03-08T08:49:21.171Z,76.19
2023-03-08T08:51:47.583Z,76.98
2023-03-08T08:54:14.054Z,77.56
2023-03-08T08:56:42.899Z,76.57
2023-03-08T08:59:11.839Z,76.46
2023-03-08T09:01:43.431Z,76.79
2023-03-08T09:04:12.029Z,76.73
2023-03-08T09:06:38.802Z,76.42
2023-03-08T09:09:05.914Z,76.21
2023-03-08T09:11:34.672Z,75.97
2023-03-08T09:14:02.497Z,74.90
2023-03-08T09:16:31.529Z,74.66
2023-03-08T09:18:59.438Z,74.19
2023-03-08T09:21:28.050Z,74.49
2023-03-08T09:23:55.832Z,74.69
2023-03-08T09:26:22.242Z,73.67
2023-03-08T09:28:48.682Z,73.68
2023-03-08T09:31:16.853Z,73.99
2023-03-08T09:33:48.848Z,74.51
2023-03-08T09:36:15.694Z,73.85
2023-03-08T09:38:42.882Z,74.49
2023-03-08T09:41:40.497Z,74.31
2023-03-08T09:44:12.763Z,73.88
2023-03-08T09:46:58.918Z,74.28
2023-03-08T09:49:30.506Z,74.74
2023-03-08T09:52:07.683Z,75.10
2023-03-08T09:54:38.100Z,75.26
2023-03-08T09:57:11.748Z,74.78
2023-03-08T09:59:44.773Z,74.65
2023-03-08T10:02:37.334Z,74.45
2023-03-08T10:05:30.782Z,74.39
2023-03-08T10:08:06.005Z,74.05
2023-03-08T10:11:04.145Z,73.14
2023-03-08T10:13:40.172Z,72.50
2023-03-08T10:16:23.550Z,73.20
2023-03-08T10:19:00.148Z,72.15
2023-03-08T10:21:29.499Z,72.84
2023-03-08T10:24:04.926Z,73.14
2023-03-08T10:26:31.511Z,72.18
2023-03-08T10:28:57.864Z,71.42
2023-03-08T10:31:27.202Z,72.09
2023-03-08T10:34:11.473Z,72.34
2023-03-08T10:37:06.639Z,72.22
2023-03-08T10:39:34.993Z,72.01
2023-03-08T10:42:07.037Z,71.64
2023-03-08T10:44:44.456Z,72.18
2023-03-08T10:47:23.995Z,72.06
2023-03-08T10:50:12.117Z,72.39
2023-03-08T10:52:38.521Z,73.39
2023-03-08T10:55:06.368Z,72.78
2023-03-08T10:57:33.682Z,73.85
2023-03-08T11:00:29.247Z,73.55
2023-03-08T11:03:23.419Z,72.63
2023-03-08T11:06:00.309Z,73.80
2023-03-08T11:08:35.895Z,74.62
2023-03-08T11:11:03.453Z,73.75
2023-03-08T11:13:33.335Z,74.68
2023-03-08T11:16:41.029Z,75.92
2023-03-08T11:19:32.280Z,75.20
2023-03-08T11:22:07.797Z,74.31
2023-03-08T11:24:40.292Z,73.87
2023-03-08T11:27:43.710Z,73.42
2023-03-08T11:30:24.211Z,73.67
2023-03-08T11:33:09.535Z,73.40
2023-03-08T11:36:00.228Z,73.50
2023-03-08T11:38:30.268Z,73.94
2023-03-08T11:40:56.599Z,73.94
2023-03-08T11:43:47.209Z,73.23
2023-03-08T11:46:30.398Z,72.11
2023-03-08T11:49:13.066Z,73.46
2023-03-08T11:51:55.403Z,73.14
2023-03-08T11:54:39.860Z,72.84
2023-03-08T11:57:10.315Z,72.21
2023-03-08T11:59:44.166Z,72.52
2023-03-08T12:02:18.554Z,72.55
2023-03-08T12:04:58.114Z,72.65
2023-03-08T12:07:28.094Z,72.43
2023-03-08T12:10:00.806Z,71.32
2023-03-08T12:12:37.405Z,72.46
2023-03-08T12:15:19.808Z,72.14
2023-03-08T12:17:53.996Z,72.46
2023-03-08T12:20:22.255Z,72.41
2023-03-08T12:23:08.366Z,72.36
2023-03-08T12:25:40.292Z,71.55
2023-03-08T12:28:45.106Z,70.97
2023-03-08T12:31:27.422Z,70.66
2023-03-08T12:33:57.781Z,70.92
2023-03-08T12:36:38.076Z,71.43
2023-03-08T12:39:25.469Z,71.48
2023-03-08T12:42:14.470Z,69.76
2023-03-08T12:44:41.304Z,72.28
2023-03-08T12:47:13.743Z,70.51
2023-03-08T12:49:43.770Z,69.37
2023-03-08T12:52:19.391Z,69.54
2023-03-08T12:55:01.876Z,69.58
2023-03-08T12:57:32.769Z,69.12
2023-03-08T13:00:10.370Z,69.34
2023-03-08T13:02:36.815Z,68.72
2023-03-08T13:05:29.193Z,68.85
2023-03-08T13:08:04.221Z,68.95
2023-03-08T13:10:37.738Z,68.79
2023-03-08T13:13:35.037Z,68.24
2023-03-08T13:16:21.882Z,68.75
2023-03-08T13:18:52.761Z,67.91
2023-03-08T13:21:47.883Z,68.12
2023-03-08T13:24:36.250Z,69.42
2023-03-08T13:27:21.529Z,68.81
2023-03-08T13:29:48.144Z,68.67
2023-03-08T13:32:20.399Z,67.93
2023-03-08T13:35:04.947Z,68.02
2023-03-08T13:37:32.227Z,68.73
2023-03-08T13:40:00.057Z,68.55
2023-03-08T13:42:28.865Z,69.00
2023-03-08T13:45:16.019Z,68.73
2023-03-08T13:47:45.851Z,68.85
2023-03-08T13:50:24.906Z,69.13
2023-03-08T13:52:51.777Z,68.15
2023-03-08T13:55:21.471Z,67.19
2023-03-08T13:57:52.242Z,67.05
2023-03-08T14:00:18.688Z,66.53
2023-03-08T14:02:47.203Z,66.97
2023-03-08T14:05:18.607Z,66.54
2023-03-08T14:07:59.389Z,65.18
2023-03-08T14:10:34.507Z,65.51
2023-03-08T14:13:01.618Z,65.85
2023-03-08T14:15:38.791Z,66.78
2023-03-08T14:18:08.230Z,66.71
2023-03-08T14:20:34.712Z,66.79
2023-03-08T14:23:01.195Z,65.96
2023-03-08T14:25:30.866Z,66.05
2023-03-08T14:27:58.237Z,66.69
2023-03-08T14:30:28.042Z,66.90
2023-03-08T14:33:07.042Z,66.48
2023-03-08T14:35:38.347Z,65.92
2023-03-08T14:38:13.486Z,66.00
2023-03-08T14:40:48.683Z,65.97
2023-03-08T14:43:23.745Z,64.92
2023-03-08T14:45:56.776Z,65.26
2023-03-08T14:48:24.940Z,65.37
2023-03-08T14:50:54.678Z,65.62
2023-03-08T14:53:34.472Z,65.44
2023-03-08T14:56:05.371Z,65.42
2023-03-08T14:58:33.648Z,65.04
2023-03-08T15:01:02.195Z,64.28
2023-03-08T15:03:32.279Z,64.34
2023-03-08T15:06:04.791Z,65.27
2023-03-08T15:08:31.268Z,65.21
2023-03-08T15:10:57.777Z,64.65
2023-03-08T15:13:24.752Z,64.68
2023-03-08T15:15:51.275Z,65.50
2023-03-08T15:18:17.946Z,65.36
2023-03-08T15:20:49.335Z,64.78
2023-03-08T15:23:28.568Z,65.37
2023-03-08T15:25:55.244Z,65.25
2023-03-08T15:28:22.992Z,65.23
2023-03-08T15:30:52.739Z,65.26
2023-03-08T15:33:19.680Z,65.82
2023-03-08T15:35:47.225Z,65.09
2023-03-08T15:38:15.388Z,64.92
2023-03-08T15:40:42.445Z,64.92
2023-03-08T15:43:09.421Z,64.62
2023-03-08T15:45:36.506Z,65.46
2023-03-08T15:48:05.875Z,65.58
2023-03-08T15:50:33.408Z,65.80
2023-03-08T15:53:00.442Z,65.62
2023-03-08T15:55:29.008Z,64.54
2023-03-08T15:57:55.742Z,64.73
2023-03-08T16:00:23.770Z,64.53
2023-03-08T16:02:53.532Z,64.94
2023-03-08T16:05:22.719Z,65.48
2023-03-08T16:07:57.703Z,65.87
2023-03-08T16:10:24.329Z,65.21
2023-03-08T16:12:50.962Z,65.45
2023-03-08T16:15:17.530Z,65.85
2023-03-08T16:17:44.212Z,66.48
2023-03-08T16:20:12.475Z,66.24
2023-03-08T16:22:39.445Z,66.71
2023-03-08T16:25:06.737Z,66.73
2023-03-08T16:27:38.102Z,66.89
2023-03-08T16:30:05.349Z,66.41
2023-03-08T16:32:31.872Z,65.58
2023-03-08T16:34:59.135Z,66.23
2023-03-08T16:37:25.988Z,65.99
2023-03-08T16:39:54.445Z,65.69
2023-03-08T16:42:21.539Z,66.68
2023-03-08T16:44:50.913Z,66.63
2023-03-08T16:47:18.102Z,67.29
2023-03-08T16:49:45.066Z,68.14
2023-03-08T16:52:11.647Z,67.82
2023-03-08T16:54:38.071Z,68.38
2023-03-08T16:57:18.291Z,69.22
2023-03-08T16:59:45.745Z,69.50
2023-03-08T17:02:17.020Z,69.54
2023-03-08T17:04:44.067Z,70.28
2023-03-08T17:07:10.989Z,70.32
2023-03-08T17:09:38.587Z,70.76
2023-03-08T17:12:06.781Z,76.96
2023-03-08T17:14:34.923Z,72.60
2023-03-08T17:17:01.862Z,71.09
2023-03-08T17:19:28.397Z,70.70
2023-03-08T17:21:54.844Z,71.61
2023-03-08T17:24:21.714Z,71.72
2023-03-08T17:26:52.569Z,71.99
2023-03-08T17:29:19.368Z,72.22
2023-03-08T17:31:45.796Z,73.00
2023-03-08T17:34:12.723Z,72.23
2023-03-08T17:36:39.374Z,72.84
2023-03-08T17:39:06.051Z,72.27
2023-03-08T17:41:32.681Z,73.11
2023-03-08T17:43:59.166Z,73.65
2023-03-08T17:46:29.397Z,73.49
2023-03-08T17:48:56.419Z,73.02
2023-03-08T17:51:26.557Z,73.57
2023-03-08T17:53:53.741Z,73.51
2023-03-08T17:56:24.955Z,73.48
2023-03-08T17:58:52.468Z,74.04
2023-03-08T18:01:21.285Z,74.45
2023-03-08T18:03:48.579Z,74.25
2023-03-08T18:06:31.768Z,75.32
2023-03-08T18:08:59.781Z,75.25
2023-03-08T18:11:27.475Z,75.53
2023-03-08T18:13:54.738Z,75.43
2023-03-08T18:16:22.013Z,74.89
2023-03-08T18:18:49.986Z,75.21
2023-03-08T18:21:17.959Z,74.69
2023-03-08T18:23:45.368Z,74.56
2023-03-08T18:26:13.470Z,75.10
2023-03-08T18:28:40.600Z,74.98
2023-03-08T18:31:09.438Z,74.49
2023-03-08T18:33:36.262Z,74.80
2023-03-08T18:36:03.744Z,74.31
2023-03-08T18:38:30.207Z,74.81
2023-03-08T18:40:56.639Z,74.52
2023-03-08T18:43:23.061Z,74.11
2023-03-08T18:45:53.933Z,74.58
2023-03-08T18:48:21.184Z,74.44
2023-03-08T18:50:47.672Z,75.41
2023-03-08T18:53:15.682Z,75.54
2023-03-08T18:55:54.273Z,75.48
2023-03-08T18:58:21.433Z,74.74
2023-03-08T19:00:48.246Z,75.17
2023-03-08T19:03:14.690Z,74.60
2023-03-08T19:05:41.204Z,75.31
2023-03-08T19:08:07.624Z,75.50
2023-03-08T19:10:34.035Z,76.38
2023-03-08T19:13:00.535Z,75.93
2023-03-08T19:15:26.986Z,75.20
2023-03-08T19:17:59.655Z,75.79
2023-03-08T19:20:26.583Z,76.73
2023-03-08T19:22:53.431Z,76.62
2023-03-08T19:25:19.861Z,76.77
2023-03-08T19:27:46.243Z,76.30
2023-03-08T19:30:12.790Z,75.97
2023-03-08T19:32:40.990Z,76.34
2023-03-08T19:35:09.291Z,76.32
2023-03-08T19:37:35.902Z,76.41
2023-03-08T19:40:05.138Z,76.50
2023-03-08T19:42:31.500Z,76.03
2023-03-08T19:44:58.352Z,75.67
2023-03-08T19:47:24.778Z,76.04
2023-03-08T19:49:51.316Z,75.84
2023-03-08T19:52:17.979Z,76.32
2023-03-08T19:54:45.381Z,76.11
2023-03-08T19:57:11.842Z,75.66
2023-03-08T19:59:38.367Z,75.43
2023-03-08T20:02:07.214Z,76.39
2023-03-08T20:04:34.082Z,76.47
2023-03-08T20:07:01.054Z,76.59
2023-03-08T20:09:27.753Z,76.72
2023-03-08T20:11:58.442Z,76.66
2023-03-08T20:14:27.118Z,76.83
2023-03-08T20:16:54.488Z,76.48
2023-03-08T20:19:21.044Z,76.16
2023-03-08T20:21:47.474Z,76.92
2023-03-08T20:24:14.407Z,76.78
2023-03-08T20:26:41.941Z,76.36
2023-03-08T20:29:08.827Z,76.84
2023-03-08T20:31:35.347Z,76.74
2023-03-08T20:34:01.781Z,76.56
2023-03-08T20:36:29.389Z,76.47
2023-03-08T20:38:57.876Z,77.02
2023-03-08T20:41:24.593Z,76.98
2023-03-08T20:43:52.451Z,77.42
2023-03-08T20:46:21.200Z,76.85
2023-03-08T20:48:47.744Z,76.32
2023-03-08T20:51:19.133Z,76.07
2023-03-08T20:53:48.803Z,76.87
2023-03-08T20:56:17.187Z,77.59
2023-03-08T20:58:43.655Z,77.96
2023-03-08T21:01:12.492Z,77.89
2023-03-08T21:03:38.910Z,78.10
2023-03-08T21:06:13.844Z,78.00
2023-03-08T21:08:40.993Z,77.73
2023-03-08T21:11:07.512Z,78.00
2023-03-08T21:13:34.436Z,77.31
2023-03-08T21:16:06.592Z,77.79
2023-03-08T21:18:32.983Z,78.34
2023-03-08T21:20:59.783Z,78.01
2023-03-08T21:23:26.588Z,77.92
2023-03-08T21:25:53.966Z,77.83
2023-03-08T21:28:21.712Z,77.02
2023-03-08T21:30:49.738Z,77.30
2023-03-08T21:33:16.159Z,77.77
2023-03-08T21:35:43.081Z,77.09
2023-03-08T21:38:09.627Z,77.83
2023-03-08T21:40:42.053Z,77.41
2023-03-08T21:43:09.181Z,77.77
2023-03-08T21:45:42.266Z,77.20
2023-03-08T21:48:09.002Z,77.50
2023-03-08T21:50:39.784Z,77.61
2023-03-08T21:53:07.883Z,76.82
2023-03-08T21:55:39.110Z,77.03
2023-03-08T21:58:06.000Z,77.46
2023-03-08T22:00:32.691Z,77.38
2023-03-08T22:02:59.207Z,77.88
2023-03-08T22:05:25.670Z,77.75
2023-03-08T22:07:52.130Z,77.52
2023-03-08T22:10:20.131Z,77.73
2023-03-08T22:12:47.368Z,77.34
2023-03-08T22:15:15.555Z,77.34
2023-03-08T22:17:43.044Z,77.55
2023-03-08T22:20:10.727Z,77.53
2023-03-08T22:22:38.234Z,78.38
2023-03-08T22:25:06.334Z,77.21
2023-03-08T22:27:32.798Z,78.05
2023-03-08T22:29:59.236Z,77.72
2023-03-08T22:32:25.946Z,76.81
2023-03-08T22:34:52.422Z,77.32
2023-03-08T22:37:18.820Z,76.81
2023-03-08T22:39:45.261Z,77.00
2023-03-08T22:42:11.891Z,77.61
2023-03-08T22:44:38.286Z,76.43
2023-03-08T22:47:05.042Z,76.77
2023-03-08T22:49:31.496Z,75.80
2023-03-08T22:51:57.902Z,76.32
2023-03-08T22:54:24.341Z,76.27
2023-03-08T22:56:50.845Z,75.66
2023-03-08T22:59:17.744Z,75.84
2023-03-08T23:01:44.619Z,75.64
2023-03-08T23:04:12.476Z,76.01
2023-03-08T23:06:39.034Z,75.79
2023-03-08T23:09:10.093Z,76.15
2023-03-08T23:11:37.993Z,76.09
2023-03-08T23:14:05.740Z,76.19
2023-03-08T23:16:32.434Z,76.99
2023-03-08T23:18:58.990Z,76.72
2023-03-08T23:21:29.748Z,75.93
2023-03-08T23:23:57.487Z,76.79
2023-03-08T23:26:27.069Z,76.95
2023-03-08T23:28:54.936Z,76.69
2023-03-08T23:31:24.696Z,76.68
2023-03-08T23:33:52.052Z,76.63
2023-03-08T23:36:21.986Z,76.62
2023-03-08T23:38:49.325Z,76.72
2023-03-08T23:41:16.835Z,76.45
2023-03-08T23:43:45.111Z,76.97
2023-03-08T23:46:17.535Z,77.02
2023-03-08T23:48:45.396Z,77.18
2023-03-08T23:51:15.244Z,77.04
2023-03-08T23:53:41.974Z,76.83
2023-03-08T23:56:19.228Z,76.75
2023-03-08T23:58:48.360Z,76.82
